createdAt,value
2023-03-07T00:01:01.713Z,38.85
2023-03-07T00:02:05.291Z,41.70
2023-03-07T00:03:08.139Z,37.75
2023-03-07T00:04:11.910Z,40.97
2023-03-07T00:05:15.030Z,39.65
2023-03-07T00:06:18.759Z,39.97
2023-03-07T00:07:21.224Z,39.95
2023-03-07T00:08:24.578Z,33.95
2023-03-07T00:09:26.884Z,39.35
2023-03-07T00:10:30.614Z,41.13
2023-03-07T00:11:34.315Z,39.50
2023-03-07T00:12:37.712Z,39.88
2023-03-07T00:13:40.032Z,45.13
2023-03-07T00:14:43.571Z,37.67
2023-03-07T00:15:46.076Z,37.40
2023-03-07T00:16:52.244Z,41.85
2023-03-07T00:17:54.592Z,44.65
2023-03-07T00:18:57.949Z,41.83
2023-03-07T00:20:00.294Z,39.72
2023-03-07T00:21:06.504Z,41.07
2023-03-07T00:22:08.904Z,41.72
2023-03-07T00:23:12.139Z,40.08
2023-03-07T00:24:14.344Z,40.92
2023-03-07T00:25:17.950Z,41.45
2023-03-07T00:26:22.169Z,41.17
2023-03-07T00:27:27.057Z,45.47
2023-03-07T00:28:29.710Z,44.10
2023-03-07T00:29:33.275Z,48.22
2023-03-07T00:30:35.663Z,44.53
2023-03-07T00:31:39.316Z,42.33
2023-03-07T00:32:41.758Z,43.00
2023-03-07T00:33:45.683Z,50.45
2023-03-07T00:34:48.064Z,50.58
2023-03-07T00:35:58.897Z,45.30
2023-03-07T00:37:01.389Z,49.08
2023-03-07T00:38:04.842Z,45.70
2023-03-07T00:39:08.409Z,39.97
2023-03-07T00:40:13.220Z,44.90
2023-03-07T00:41:17.501Z,42.78
2023-03-07T00:42:21.001Z,39.80
2023-03-07T00:43:24.872Z,47.30
2023-03-07T00:44:30.088Z,41.95
2023-03-07T00:45:32.523Z,42.65
2023-03-07T00:46:35.953Z,49.85
2023-03-07T00:47:38.353Z,40.65
2023-03-07T00:48:42.221Z,37.25
2023-03-07T00:49:44.597Z,41.47
2023-03-07T00:50:48.204Z,37.83
2023-03-07T00:51:51.803Z,40.47
2023-03-07T00:52:54.394Z,40.77
2023-03-07T00:54:00.404Z,37.65
2023-03-07T00:55:02.915Z,36.20
2023-03-07T00:56:10.100Z,35.80
2023-03-07T00:57:12.917Z,37.45
2023-03-07T00:58:17.673Z,36.42
2023-03-07T00:59:22.647Z,37.65
2023-03-07T01:00:25.091Z,33.58
2023-03-07T01:01:28.566Z,35.20
2023-03-07T01:02:31.314Z,36.25
2023-03-07T01:03:35.778Z,33.33
2023-03-07T01:04:38.253Z,33.47
2023-03-07T01:05:42.047Z,32.53
2023-03-07T01:06:44.376Z,31.20
2023-03-07T01:07:48.394Z,27.90
2023-03-07T01:08:50.807Z,30.95
2023-03-07T01:09:54.957Z,30.08
2023-03-07T01:10:59.936Z,25.88
2023-03-07T01:12:07.288Z,30.13
2023-03-07T01:13:10.322Z,28.50
2023-03-07T01:14:13.757Z,32.23
2023-03-07T01:15:17.688Z,33.22
2023-03-07T01:16:23.182Z,29.83
2023-03-07T01:17:25.620Z,32.15
2023-03-07T01:18:29.068Z,31.23
2023-03-07T01:19:31.670Z,30.55
2023-03-07T01:20:35.946Z,28.25
2023-03-07T01:21:43.653Z,34.08
2023-03-07T01:22:46.307Z,36.78
2023-03-07T01:23:49.753Z,34.85
2023-03-07T01:24:52.194Z,35.57
2023-03-07T01:25:55.502Z,34.05
2023-03-07T01:26:57.877Z,31.58
2023-03-07T01:28:02.201Z,32.95
2023-03-07T01:29:06.346Z,30.42
2023-03-07T01:30:11.289Z,33.97
2023-03-07T01:31:15.060Z,30.90
2023-03-07T01:32:18.446Z,29.73
2023-03-07T01:33:20.800Z,29.95
2023-03-07T01:34:29.184Z,33.13
2023-03-07T01:35:36.974Z,27.33
2023-03-07T01:36:42.900Z,25.30
2023-03-07T01:37:48.856Z,27.90
2023-03-07T01:38:56.359Z,25.92
2023-03-07T01:39:59.149Z,29.05
2023-03-07T01:41:05.840Z,28.63
2023-03-07T01:42:09.083Z,26.23
2023-03-07T01:43:29.154Z,27.52
2023-03-07T01:45:00.212Z,29.38
2023-03-07T01:46:33.434Z,25.98
2023-03-07T01:47:36.764Z,24.93
2023-03-07T01:48:39.847Z,27.42
2023-03-07T01:49:46.427Z,27.40
2023-03-07T01:50:49.667Z,24.95
2023-03-07T01:51:58.975Z,27.13
2023-03-07T01:53:01.746Z,31.23
2023-03-07T01:54:05.901Z,27.70
2023-03-07T01:55:14.761Z,30.85
2023-03-07T01:56:18.314Z,26.38
2023-03-07T01:57:26.088Z,32.28
2023-03-07T01:58:29.911Z,27.57
2023-03-07T01:59:34.355Z,29.92
2023-03-07T02:00:39.437Z,28.40
2023-03-07T02:01:43.521Z,31.60
2023-03-07T02:02:53.157Z,27.15
2023-03-07T02:04:01.296Z,27.30
2023-03-07T02:05:11.403Z,31.02
2023-03-07T02:06:13.910Z,29.38
2023-03-07T02:07:18.051Z,27.98
2023-03-07T02:08:24.640Z,31.17
2023-03-07T02:09:28.991Z,29.63
2023-03-07T02:10:33.157Z,33.65
2023-03-07T02:11:36.670Z,33.38
2023-03-07T02:12:41.327Z,34.63
2023-03-07T02:13:44.821Z,32.85
2023-03-07T02:14:49.256Z,30.95
2023-03-07T02:15:53.303Z,35.08
2023-03-07T02:16:57.138Z,30.58
2023-03-07T02:18:00.748Z,33.45
2023-03-07T02:19:04.815Z,28.80
2023-03-07T02:20:24.038Z,29.43
2023-03-07T02:21:38.969Z,33.95
2023-03-07T02:22:43.200Z,35.72
2023-03-07T02:23:53.901Z,31.48
2023-03-07T02:25:02.689Z,29.40
2023-03-07T02:26:12.608Z,29.83
2023-03-07T02:27:17.649Z,34.20
2023-03-07T02:28:19.978Z,34.45
2023-03-07T02:29:23.460Z,33.20
2023-03-07T02:30:27.001Z,35.80
2023-03-07T02:31:30.803Z,35.13
2023-03-07T02:32:33.380Z,33.13
2023-03-07T02:33:36.831Z,36.22
2023-03-07T02:34:39.148Z,31.33
2023-03-07T02:35:42.549Z,33.17
2023-03-07T02:36:45.464Z,34.15
2023-03-07T02:37:53.835Z,37.45
2023-03-07T02:38:58.199Z,36.35
2023-03-07T02:40:07.122Z,37.08
2023-03-07T02:41:12.594Z,30.88
2023-03-07T02:42:22.617Z,37.57
2023-03-07T02:43:25.499Z,32.40
2023-03-07T02:44:29.197Z,32.25
2023-03-07T02:45:31.491Z,35.63
2023-03-07T02:46:35.039Z,36.60
2023-03-07T02:47:37.976Z,33.42
2023-03-07T02:48:41.548Z,37.95
2023-03-07T02:49:43.935Z,42.45
2023-03-07T02:50:48.891Z,33.97
2023-03-07T02:51:51.408Z,36.40
2023-03-07T02:52:55.093Z,34.20
2023-03-07T02:53:57.511Z,35.40
2023-03-07T02:55:00.969Z,37.22
2023-03-07T02:56:03.973Z,42.17
2023-03-07T02:57:07.383Z,38.90
2023-03-07T02:58:11.224Z,41.78
2023-03-07T02:59:14.708Z,39.17
2023-03-07T03:00:18.049Z,39.40
2023-03-07T03:01:21.796Z,37.88
2023-03-07T03:02:24.095Z,35.90
2023-03-07T03:03:27.641Z,36.57
2023-03-07T03:04:30.093Z,35.63
2023-03-07T03:05:33.497Z,33.08
2023-03-07T03:06:35.904Z,34.97
2023-03-07T03:07:39.547Z,33.65
2023-03-07T03:08:41.908Z,33.38
2023-03-07T03:09:45.627Z,36.55
2023-03-07T03:10:53.118Z,30.98
2023-03-07T03:11:56.650Z,32.15
2023-03-07T03:12:59.515Z,34.45
2023-03-07T03:14:04.602Z,30.67
2023-03-07T03:15:08.493Z,31.13
2023-03-07T03:16:12.005Z,35.35
2023-03-07T03:17:14.314Z,31.05
2023-03-07T03:18:18.197Z,31.70
2023-03-07T03:19:20.936Z,28.10
2023-03-07T03:20:25.465Z,34.15
2023-03-07T03:21:27.865Z,30.38
2023-03-07T03:22:31.183Z,30.02
2023-03-07T03:23:33.435Z,30.50
2023-03-07T03:24:39.921Z,29.13
2023-03-07T03:25:42.317Z,30.55
2023-03-07T03:26:45.647Z,31.85
2023-03-07T03:27:48.046Z,30.42
2023-03-07T03:28:51.881Z,24.95
2023-03-07T03:29:55.975Z,27.75
2023-03-07T03:31:00.526Z,25.17
2023-03-07T03:32:03.954Z,30.65
2023-03-07T03:33:07.651Z,23.27
2023-03-07T03:34:09.936Z,24.35
2023-03-07T03:35:13.410Z,27.23
2023-03-07T03:36:17.289Z,24.27
2023-03-07T03:37:20.763Z,28.35
2023-03-07T03:38:23.335Z,26.75
2023-03-07T03:39:27.203Z,25.92
2023-03-07T03:40:29.600Z,24.98
2023-03-07T03:41:33.031Z,24.73
2023-03-07T03:42:35.499Z,28.33
2023-03-07T03:43:38.911Z,27.55
2023-03-07T03:44:41.234Z,29.30
2023-03-07T03:45:46.168Z,29.60
2023-03-07T03:46:49.634Z,30.73
2023-03-07T03:47:51.974Z,31.70
2023-03-07T03:48:56.009Z,31.13
2023-03-07T03:49:58.180Z,30.90
2023-03-07T03:51:02.822Z,28.33
2023-03-07T03:52:05.489Z,32.33
2023-03-07T03:53:08.748Z,26.95
2023-03-07T03:54:11.118Z,26.15
2023-03-07T03:55:14.455Z,30.55
2023-03-07T03:56:18.631Z,41.23
2023-03-07T03:57:22.011Z,33.33
2023-03-07T03:58:24.318Z,33.00
2023-03-07T03:59:28.077Z,36.58
2023-03-07T04:00:30.798Z,35.03
2023-03-07T04:01:36.260Z,28.30
2023-03-07T04:02:38.783Z,29.08
2023-03-07T04:03:44.325Z,27.35
2023-03-07T04:04:46.737Z,28.17
2023-03-07T04:05:50.346Z,31.60
2023-03-07T04:06:53.068Z,36.30
2023-03-07T04:07:56.346Z,32.00
2023-03-07T04:08:59.542Z,32.88
2023-03-07T04:10:03.037Z,30.20
2023-03-07T04:11:06.274Z,25.38
2023-03-07T04:12:10.103Z,28.20
2023-03-07T04:13:12.446Z,28.70
2023-03-07T04:14:16.365Z,29.33
2023-03-07T04:15:18.632Z,32.58
2023-03-07T04:16:22.978Z,30.92
2023-03-07T04:17:26.925Z,28.10
2023-03-07T04:18:30.747Z,28.73
2023-03-07T04:19:33.697Z,26.60
2023-03-07T04:20:37.407Z,26.05
2023-03-07T04:21:41.160Z,29.33
2023-03-07T04:22:44.669Z,30.75
2023-03-07T04:23:49.703Z,28.45
2023-03-07T04:24:51.987Z,24.85
2023-03-07T04:25:57.592Z,28.50
2023-03-07T04:27:00.310Z,28.88
2023-03-07T04:28:03.747Z,26.40
2023-03-07T04:29:06.466Z,29.50
2023-03-07T04:30:11.370Z,27.85
2023-03-07T04:31:15.850Z,27.33
2023-03-07T04:32:19.221Z,36.42
2023-03-07T04:33:23.440Z,29.08
2023-03-07T04:34:26.895Z,31.45
2023-03-07T04:35:29.383Z,25.75
2023-03-07T04:36:32.859Z,29.92
2023-03-07T04:37:35.348Z,34.50
2023-03-07T04:38:40.640Z,25.13
2023-03-07T04:39:43.067Z,30.23
2023-03-07T04:40:46.642Z,29.38
2023-03-07T04:41:49.063Z,27.15
2023-03-07T04:42:52.379Z,29.65
2023-03-07T04:43:54.738Z,29.88
2023-03-07T04:44:58.114Z,32.30
2023-03-07T04:46:00.701Z,32.25
2023-03-07T04:47:04.098Z,27.25
2023-03-07T04:48:07.034Z,29.80
2023-03-07T04:49:11.687Z,28.23
2023-03-07T04:50:13.972Z,29.55
2023-03-07T04:51:17.557Z,29.75
2023-03-07T04:52:19.847Z,31.38
2023-03-07T04:53:23.278Z,32.40
2023-03-07T04:54:25.503Z,28.42
2023-03-07T04:55:28.906Z,30.10
2023-03-07T04:56:31.262Z,25.95
2023-03-07T04:57:34.559Z,29.80
2023-03-07T04:58:37.950Z,30.55
2023-03-07T04:59:41.363Z,28.60
2023-03-07T05:00:45.280Z,27.23
2023-03-07T05:01:48.711Z,28.23
2023-03-07T05:02:51.163Z,28.05
2023-03-07T05:03:54.506Z,25.00
2023-03-07T05:04:58.217Z,27.35
2023-03-07T05:06:03.734Z,28.67
2023-03-07T05:07:06.152Z,29.50
2023-03-07T05:08:09.785Z,28.10
2023-03-07T05:09:12.005Z,27.55
2023-03-07T05:10:15.367Z,27.53
2023-03-07T05:11:17.690Z,25.80
2023-03-07T05:12:20.952Z,25.52
2023-03-07T05:13:23.630Z,29.20
2023-03-07T05:14:27.074Z,28.60
2023-03-07T05:15:29.422Z,26.05
2023-03-07T05:16:33.720Z,27.40
2023-03-07T05:17:36.850Z,25.20
2023-03-07T05:18:40.334Z,28.85
2023-03-07T05:19:42.864Z,28.55
2023-03-07T05:20:47.809Z,28.17
2023-03-07T05:21:50.161Z,26.73
2023-03-07T05:22:53.799Z,26.88
2023-03-07T05:23:56.047Z,24.67
2023-03-07T05:25:00.130Z,24.10
2023-03-07T05:26:02.894Z,26.02
2023-03-07T05:27:06.774Z,21.27
2023-03-07T05:28:09.209Z,25.05
2023-03-07T05:29:12.540Z,26.35
2023-03-07T05:30:16.585Z,24.70
2023-03-07T05:31:19.936Z,30.63
2023-03-07T05:32:22.380Z,26.73
2023-03-07T05:33:25.753Z,26.30
2023-03-07T05:34:28.096Z,29.15
2023-03-07T05:35:31.786Z,29.17
2023-03-07T05:36:35.634Z,30.23
2023-03-07T05:37:38.983Z,28.42
2023-03-07T05:38:41.333Z,27.85
2023-03-07T05:39:44.730Z,29.88
2023-03-07T05:40:47.235Z,24.95
2023-03-07T05:41:50.566Z,27.90
2023-03-07T05:42:52.875Z,29.33
2023-03-07T05:43:56.287Z,28.23
2023-03-07T05:44:58.506Z,24.67
2023-03-07T05:46:01.923Z,30.60
2023-03-07T05:47:04.650Z,28.83
2023-03-07T05:48:08.101Z,30.70
2023-03-07T05:49:10.341Z,29.60
2023-03-07T05:50:14.442Z,28.48
2023-03-07T05:51:16.789Z,26.90
2023-03-07T05:52:21.596Z,24.23
2023-03-07T05:53:23.928Z,29.45
2023-03-07T05:54:27.767Z,23.88
2023-03-07T05:55:30.134Z,24.00
2023-03-07T05:56:33.675Z,26.35
2023-03-07T05:57:35.952Z,25.38
2023-03-07T05:58:39.760Z,26.90
2023-03-07T05:59:42.273Z,23.55
2023-03-07T06:00:45.556Z,20.80
2023-03-07T06:01:47.871Z,26.90
2023-03-07T06:02:51.233Z,21.73
2023-03-07T06:03:54.662Z,25.35
2023-03-07T06:04:57.037Z,24.33
2023-03-07T06:06:00.616Z,22.90
2023-03-07T06:07:03.513Z,26.75
2023-03-07T06:08:08.501Z,24.20
2023-03-07T06:09:10.899Z,24.80
2023-03-07T06:10:14.575Z,22.27
2023-03-07T06:11:17.042Z,24.63
2023-03-07T06:12:20.449Z,26.85
2023-03-07T06:13:25.049Z,27.87
2023-03-07T06:14:28.518Z,23.05
2023-03-07T06:15:31.245Z,30.77
2023-03-07T06:16:34.596Z,30.38
2023-03-07T06:17:37.832Z,24.13
2023-03-07T06:18:41.728Z,26.08
2023-03-07T06:19:44.264Z,22.33
2023-03-07T06:20:56.797Z,20.75
2023-03-07T06:21:59.416Z,25.50
2023-03-07T06:23:02.886Z,22.95
2023-03-07T06:24:07.544Z,18.87
2023-03-07T06:25:11.470Z,23.17
2023-03-07T06:26:14.010Z,24.05
2023-03-07T06:27:17.308Z,20.30
2023-03-07T06:28:19.705Z,20.88
2023-03-07T06:29:23.032Z,23.45
2023-03-07T06:30:25.539Z,21.52
2023-03-07T06:31:29.403Z,21.05
2023-03-07T06:32:32.182Z,21.27
2023-03-07T06:33:35.635Z,20.85
2023-03-07T06:34:38.305Z,20.07
2023-03-07T06:35:41.665Z,21.05
2023-03-07T06:36:44.098Z,26.52
2023-03-07T06:37:47.858Z,23.67
2023-03-07T06:38:50.188Z,23.73
2023-03-07T06:39:56.672Z,24.35
2023-03-07T06:40:59.022Z,26.63
2023-03-07T06:42:02.341Z,21.48
2023-03-07T06:43:04.832Z,28.92
2023-03-07T06:44:08.612Z,27.80
2023-03-07T06:45:11.700Z,19.70
2023-03-07T06:46:17.259Z,23.75
2023-03-07T06:47:20.643Z,20.45
2023-03-07T06:48:23.291Z,21.95
2023-03-07T06:49:26.777Z,27.25
2023-03-07T06:50:35.136Z,23.65
2023-03-07T06:51:39.002Z,23.35
2023-03-07T06:52:41.776Z,20.05
2023-03-07T06:53:45.168Z,18.45
2023-03-07T06:54:47.467Z,17.15
2023-03-07T06:55:53.408Z,21.53
2023-03-07T06:56:55.751Z,21.02
2023-03-07T06:57:59.183Z,18.98
2023-03-07T06:59:01.954Z,17.02
2023-03-07T07:00:07.044Z,17.13
2023-03-07T07:01:17.155Z,19.25
2023-03-07T07:02:20.791Z,19.77
2023-03-07T07:03:23.397Z,16.67
2023-03-07T07:04:26.760Z,15.82
2023-03-07T07:05:29.093Z,17.63
2023-03-07T07:06:32.466Z,18.03
2023-03-07T07:07:34.874Z,19.33
2023-03-07T07:08:38.195Z,18.50
2023-03-07T07:09:40.569Z,20.67
2023-03-07T07:10:44.064Z,16.23
2023-03-07T07:11:48.842Z,18.98
2023-03-07T07:12:54.651Z,17.70
2023-03-07T07:13:58.499Z,23.88
2023-03-07T07:15:02.367Z,20.23
2023-03-07T07:16:07.042Z,21.30
2023-03-07T07:17:10.443Z,19.83
2023-03-07T07:18:14.122Z,26.63
2023-03-07T07:19:17.612Z,23.77
2023-03-07T07:20:20.525Z,25.95
2023-03-07T07:21:23.848Z,18.67
2023-03-07T07:22:26.143Z,25.00
2023-03-07T07:23:29.915Z,19.63
2023-03-07T07:24:32.292Z,25.90
2023-03-07T07:25:35.676Z,30.30
2023-03-07T07:26:38.447Z,31.63
2023-03-07T07:27:43.281Z,37.73
2023-03-07T07:28:47.203Z,34.97
2023-03-07T07:29:49.568Z,40.38
2023-03-07T07:30:52.970Z,36.78
2023-03-07T07:31:55.356Z,35.13
2023-03-07T07:32:58.771Z,43.80
2023-03-07T07:34:01.365Z,32.72
2023-03-07T07:35:05.704Z,42.95
2023-03-07T07:36:09.316Z,35.97
2023-03-07T07:37:12.947Z,31.95
2023-03-07T07:38:15.325Z,30.97
2023-03-07T07:39:18.611Z,28.83
2023-03-07T07:40:21.314Z,30.85
2023-03-07T07:41:24.706Z,33.40
2023-03-07T07:42:27.234Z,30.25
2023-03-07T07:43:32.180Z,32.72
2023-03-07T07:44:34.543Z,35.42
2023-03-07T07:45:38.895Z,30.92
2023-03-07T07:46:41.256Z,31.52
2023-03-07T07:47:44.598Z,31.45
2023-03-07T07:48:48.935Z,30.13
2023-03-07T07:49:51.324Z,26.90
2023-03-07T07:50:54.836Z,34.28
2023-03-07T07:51:58.302Z,25.05
2023-03-07T07:53:00.664Z,30.73
2023-03-07T07:54:04.316Z,33.50
2023-03-07T07:55:08.036Z,29.90
2023-03-07T07:56:11.468Z,27.05
2023-03-07T07:57:14.863Z,26.15
2023-03-07T07:58:18.337Z,25.08
2023-03-07T07:59:23.170Z,27.10
2023-03-07T08:00:26.027Z,24.65
2023-03-07T08:01:29.462Z,20.92
2023-03-07T08:02:31.880Z,19.65
2023-03-07T08:03:35.179Z,22.05
2023-03-07T08:04:38.983Z,19.88
2023-03-07T08:05:48.254Z,25.75
2023-03-07T08:06:52.494Z,18.23
2023-03-07T08:07:56.348Z,16.00
2023-03-07T08:09:00.437Z,16.13
2023-03-07T08:10:02.687Z,17.77
2023-03-07T08:11:06.695Z,16.58
2023-03-07T08:12:12.301Z,16.85
2023-03-07T08:13:17.607Z,18.17
2023-03-07T08:14:22.363Z,18.15
2023-03-07T08:15:25.836Z,17.35
2023-03-07T08:16:28.124Z,16.65
2023-03-07T08:17:31.635Z,16.92
2023-03-07T08:18:34.056Z,17.42
2023-03-07T08:19:37.322Z,18.38
2023-03-07T08:20:41.357Z,15.97
2023-03-07T08:21:44.720Z,16.88
2023-03-07T08:22:48.902Z,14.88
2023-03-07T08:23:52.186Z,15.40
2023-03-07T08:24:55.477Z,17.95
2023-03-07T08:26:05.870Z,15.18
2023-03-07T08:27:08.568Z,15.23
2023-03-07T08:28:11.934Z,14.30
2023-03-07T08:29:14.432Z,12.80
2023-03-07T08:30:19.914Z,13.63
2023-03-07T08:31:24.182Z,13.60
2023-03-07T08:32:27.617Z,14.43
2023-03-07T08:33:31.003Z,14.18
2023-03-07T08:34:33.799Z,15.27
2023-03-07T08:35:37.200Z,15.32
2023-03-07T08:36:40.520Z,15.13
2023-03-07T08:37:43.936Z,17.20
2023-03-07T08:38:52.131Z,16.83
2023-03-07T08:39:54.735Z,21.65
2023-03-07T08:41:02.107Z,23.00
2023-03-07T08:42:05.965Z,23.80
2023-03-07T08:43:09.584Z,26.88
2023-03-07T08:44:11.830Z,26.90
2023-03-07T08:45:15.454Z,31.00
2023-03-07T08:46:19.372Z,26.85
2023-03-07T08:47:22.803Z,31.80
2023-03-07T08:48:25.574Z,31.08
2023-03-07T08:49:28.931Z,28.27
2023-03-07T08:50:31.194Z,30.33
2023-03-07T08:51:35.106Z,29.83
2023-03-07T08:52:37.630Z,34.70
2023-03-07T08:53:43.020Z,32.80
2023-03-07T08:54:46.289Z,33.33
2023-03-07T08:55:49.613Z,34.22
2023-03-07T08:56:52.913Z,35.75
2023-03-07T08:57:56.346Z,37.45
2023-03-07T08:58:59.635Z,33.60
2023-03-07T09:00:01.896Z,38.28
2023-03-07T09:01:06.275Z,32.53
2023-03-07T09:02:11.489Z,36.95
2023-03-07T09:03:14.878Z,36.73
2023-03-07T09:04:20.067Z,34.47
2023-03-07T09:05:22.431Z,39.65
2023-03-07T09:06:25.893Z,32.17
2023-03-07T09:07:28.625Z,33.03
2023-03-07T09:08:32.069Z,35.08
2023-03-07T09:09:34.361Z,32.78
2023-03-07T09:10:38.327Z,34.78
2023-03-07T09:11:40.557Z,34.45
2023-03-07T09:12:44.105Z,32.08
2023-03-07T09:13:52.671Z,33.40
2023-03-07T09:14:56.818Z,32.17
2023-03-07T09:16:00.243Z,32.60
2023-03-07T09:17:04.745Z,35.45
2023-03-07T09:18:08.639Z,30.95
2023-03-07T09:19:12.472Z,34.17
2023-03-07T09:20:16.369Z,31.33
2023-03-07T09:21:19.802Z,33.50
2023-03-07T09:22:23.241Z,35.88
2023-03-07T09:23:25.598Z,32.60
2023-03-07T09:24:28.883Z,30.50
2023-03-07T09:25:32.182Z,30.02
2023-03-07T09:26:35.629Z,33.53
2023-03-07T09:27:38.149Z,29.60
2023-03-07T09:28:41.563Z,34.28
2023-03-07T09:29:44.918Z,29.95
2023-03-07T09:30:48.325Z,28.30
2023-03-07T09:31:51.720Z,27.23
2023-03-07T09:32:54.138Z,27.45
2023-03-07T09:33:59.525Z,25.77
2023-03-07T09:35:02.875Z,28.50
2023-03-07T09:36:07.174Z,26.90
2023-03-07T09:37:11.233Z,26.92
2023-03-07T09:38:13.866Z,29.83
2023-03-07T09:39:17.135Z,26.52
2023-03-07T09:40:23.809Z,26.42
2023-03-07T09:41:52.576Z,25.90
2023-03-07T09:43:03.639Z,24.83
2023-03-07T09:44:17.235Z,25.52
2023-03-07T09:45:30.765Z,23.38
2023-03-07T09:46:45.716Z,23.23
2023-03-07T09:48:22.200Z,25.15
2023-03-07T09:49:35.078Z,21.73
2023-03-07T09:50:47.590Z,22.90
2023-03-07T09:51:53.594Z,23.25
2023-03-07T09:53:02.761Z,21.65
2023-03-07T09:54:12.101Z,23.60
2023-03-07T09:55:19.104Z,20.25
2023-03-07T09:56:25.353Z,24.15
2023-03-07T09:57:31.979Z,24.13
2023-03-07T09:58:40.972Z,21.43
2023-03-07T09:59:47.527Z,22.30
2023-03-07T10:00:56.403Z,23.52
2023-03-07T10:02:06.125Z,21.02
2023-03-07T10:03:20.144Z,23.90
2023-03-07T10:04:33.473Z,26.15
2023-03-07T10:05:40.453Z,26.70
2023-03-07T10:06:45.394Z,25.33
2023-03-07T10:07:47.842Z,28.00
2023-03-07T10:08:51.176Z,22.38
2023-03-07T10:09:59.861Z,20.00
2023-03-07T10:11:18.515Z,20.25
2023-03-07T10:12:40.583Z,20.00
2023-03-07T10:14:07.065Z,20.27
2023-03-07T10:15:21.469Z,20.40
2023-03-07T10:16:30.238Z,20.02
2023-03-07T10:17:51.026Z,16.10
2023-03-07T10:19:06.253Z,20.35
2023-03-07T10:20:21.408Z,19.80
2023-03-07T10:21:34.460Z,18.20
2023-03-07T10:22:44.534Z,21.13
2023-03-07T10:24:17.463Z,20.73
2023-03-07T10:25:28.221Z,19.48
2023-03-07T10:26:33.719Z,20.42
2023-03-07T10:27:37.097Z,21.65
2023-03-07T10:28:43.085Z,18.45
2023-03-07T10:29:48.893Z,23.23
2023-03-07T10:30:55.839Z,21.83
2023-03-07T10:32:14.275Z,21.80
2023-03-07T10:33:19.942Z,18.40
2023-03-07T10:34:27.888Z,24.97
2023-03-07T10:35:41.952Z,20.75
2023-03-07T10:36:46.950Z,23.63
2023-03-07T10:37:52.987Z,26.85
2023-03-07T10:39:04.861Z,23.02
2023-03-07T10:40:16.541Z,24.33
2023-03-07T10:41:22.961Z,26.15
2023-03-07T10:42:33.090Z,29.80
2023-03-07T10:43:36.466Z,26.88
2023-03-07T10:44:39.308Z,31.50
2023-03-07T10:45:42.680Z,30.87
2023-03-07T10:46:55.374Z,22.52
2023-03-07T10:48:02.043Z,29.25
2023-03-07T10:49:10.679Z,26.27
2023-03-07T10:50:27.146Z,25.67
2023-03-07T10:51:48.552Z,24.48
2023-03-07T10:52:55.318Z,19.90
2023-03-07T10:53:58.902Z,23.52
2023-03-07T10:55:40.929Z,27.42
2023-03-07T10:57:05.062Z,28.08
2023-03-07T10:58:19.760Z,26.67
2023-03-07T10:59:26.735Z,24.27
2023-03-07T11:00:29.713Z,28.05
2023-03-07T11:01:34.862Z,27.13
2023-03-07T11:02:41.165Z,27.23
2023-03-07T11:03:58.498Z,25.20
2023-03-07T11:05:03.872Z,24.33
2023-03-07T11:06:07.738Z,28.98
2023-03-07T11:07:28.007Z,26.05
2023-03-07T11:08:33.550Z,25.52
2023-03-07T11:09:47.487Z,27.17
2023-03-07T11:10:49.945Z,29.42
2023-03-07T11:11:56.764Z,31.77
2023-03-07T11:13:00.221Z,29.88
2023-03-07T11:14:09.206Z,31.60
2023-03-07T11:15:19.582Z,30.30
2023-03-07T11:16:24.347Z,24.30
2023-03-07T11:17:31.766Z,29.40
2023-03-07T11:18:41.032Z,24.80
2023-03-07T11:19:45.170Z,26.85
2023-03-07T11:20:50.012Z,24.80
2023-03-07T11:21:55.502Z,29.23
2023-03-07T11:23:16.234Z,27.38
2023-03-07T11:24:26.566Z,22.95
2023-03-07T11:25:36.944Z,26.52
2023-03-07T11:26:40.953Z,20.42
2023-03-07T11:27:51.623Z,27.83
2023-03-07T11:29:08.247Z,27.00
2023-03-07T11:30:25.219Z,26.48
2023-03-07T11:31:33.645Z,20.65
2023-03-07T11:32:41.748Z,25.97
2023-03-07T11:34:00.121Z,25.92
2023-03-07T11:35:08.330Z,27.35
2023-03-07T11:36:16.753Z,21.52
2023-03-07T11:37:29.385Z,24.77
2023-03-07T11:38:52.878Z,25.17
2023-03-07T11:40:16.943Z,24.52
2023-03-07T11:41:26.913Z,19.63
2023-03-07T11:42:34.241Z,22.23
2023-03-07T11:43:54.363Z,19.33
2023-03-07T11:45:05.344Z,18.03
2023-03-07T11:46:12.126Z,20.30
2023-03-07T11:47:45.871Z,20.60
2023-03-07T11:48:58.193Z,20.13
2023-03-07T11:50:12.259Z,19.95
2023-03-07T11:51:33.983Z,25.75
2023-03-07T11:52:57.089Z,19.42
2023-03-07T11:54:12.829Z,22.90
2023-03-07T11:55:25.845Z,21.67
2023-03-07T11:56:34.020Z,25.13
2023-03-07T11:57:56.227Z,22.13
2023-03-07T11:59:40.814Z,21.52
2023-03-07T12:00:56.512Z,19.80
2023-03-07T12:02:02.524Z,21.17
2023-03-07T12:03:39.125Z,21.70
2023-03-07T12:05:00.927Z,22.33
2023-03-07T12:06:19.607Z,20.85
2023-03-07T12:07:48.386Z,21.98
2023-03-07T12:09:03.411Z,23.63
2023-03-07T12:10:21.369Z,20.63
2023-03-07T12:11:38.900Z,22.77
2023-03-07T12:12:57.889Z,25.55
2023-03-07T12:14:12.735Z,21.50
2023-03-07T12:15:31.465Z,19.52
2023-03-07T12:16:43.906Z,19.60
2023-03-07T12:18:01.015Z,23.67
2023-03-07T12:19:36.140Z,22.40
2023-03-07T12:20:47.354Z,22.92
2023-03-07T12:22:17.396Z,17.35
2023-03-07T12:23:24.593Z,18.23
2023-03-07T12:24:31.722Z,17.93
2023-03-07T12:25:39.190Z,21.63
2023-03-07T12:26:51.787Z,22.80
2023-03-07T12:28:06.401Z,20.30
2023-03-07T12:29:16.392Z,19.20
2023-03-07T12:30:23.878Z,21.45
2023-03-07T12:31:30.353Z,28.95
2023-03-07T12:32:36.924Z,22.92
2023-03-07T12:33:54.486Z,23.40
2023-03-07T12:35:02.242Z,22.98
2023-03-07T12:36:10.955Z,20.97
2023-03-07T12:37:20.398Z,24.42
2023-03-07T12:38:30.935Z,22.98
2023-03-07T12:39:46.636Z,23.95
2023-03-07T12:40:56.600Z,24.42
2023-03-07T12:42:04.618Z,25.25
2023-03-07T12:43:15.167Z,27.55
2023-03-07T12:44:31.286Z,26.70
2023-03-07T12:45:43.095Z,22.83
2023-03-07T12:46:51.522Z,23.88
2023-03-07T12:48:04.771Z,26.27
2023-03-07T12:49:17.333Z,23.83
2023-03-07T12:50:25.123Z,21.25
2023-03-07T12:51:33.481Z,22.23
2023-03-07T12:52:43.965Z,25.40
2023-03-07T12:53:55.295Z,25.73
2023-03-07T12:55:02.542Z,25.00
2023-03-07T12:56:15.463Z,24.88
2023-03-07T12:57:26.267Z,24.70
2023-03-07T12:58:39.995Z,27.88
2023-03-07T12:59:45.441Z,24.70
2023-03-07T13:00:51.555Z,23.35
2023-03-07T13:02:01.695Z,21.40
2023-03-07T13:03:06.786Z,26.88
2023-03-07T13:04:18.946Z,27.35
2023-03-07T13:05:21.921Z,23.30
2023-03-07T13:06:27.073Z,25.48
2023-03-07T13:07:32.114Z,29.40
2023-03-07T13:08:36.358Z,28.23
2023-03-07T13:09:42.709Z,27.35
2023-03-07T13:10:47.314Z,22.90
2023-03-07T13:12:24.486Z,24.05
2023-03-07T13:13:51.503Z,25.35
2023-03-07T13:14:58.589Z,20.15
2023-03-07T13:16:05.688Z,21.67
2023-03-07T13:17:11.733Z,22.83
2023-03-07T13:18:29.683Z,23.80
2023-03-07T13:19:56.313Z,26.15
2023-03-07T13:21:14.412Z,20.17
2023-03-07T13:22:54.191Z,21.52
2023-03-07T13:24:30.568Z,24.00
2023-03-07T13:25:57.254Z,17.20
2023-03-07T13:27:02.213Z,26.58
2023-03-07T13:28:53.187Z,20.90
2023-03-07T13:30:18.282Z,23.95
2023-03-07T13:31:40.136Z,22.60
2023-03-07T13:33:01.330Z,25.50
2023-03-07T13:34:41.560Z,29.15
2023-03-07T13:35:56.195Z,25.38
2023-03-07T13:36:58.729Z,25.98
2023-03-07T13:38:03.894Z,24.77
2023-03-07T13:39:42.893Z,24.98
2023-03-07T13:40:54.871Z,23.40
2023-03-07T13:41:58.356Z,22.27
2023-03-07T13:43:01.292Z,20.50
2023-03-07T13:44:06.528Z,23.25
2023-03-07T13:45:41.704Z,22.33
2023-03-07T13:46:51.917Z,21.33
2023-03-07T13:47:55.506Z,26.88
2023-03-07T13:49:02.302Z,23.00
2023-03-07T13:50:39.996Z,26.10
2023-03-07T13:52:20.369Z,23.95
2023-03-07T13:53:30.334Z,22.42
2023-03-07T13:54:33.544Z,23.67
2023-03-07T13:55:47.256Z,23.35
2023-03-07T13:56:49.564Z,30.17
2023-03-07T13:57:56.328Z,23.92
2023-03-07T13:59:02.550Z,25.25
2023-03-07T14:00:23.506Z,23.13
2023-03-07T14:01:33.035Z,23.90
2023-03-07T14:02:35.374Z,25.17
2023-03-07T14:03:41.770Z,23.45
2023-03-07T14:04:51.848Z,27.55
2023-03-07T14:05:55.779Z,20.85
2023-03-07T14:07:03.754Z,22.50
2023-03-07T14:08:11.155Z,27.67
2023-03-07T14:09:17.048Z,27.88
2023-03-07T14:10:25.227Z,23.67
2023-03-07T14:11:40.283Z,24.85
2023-03-07T14:13:00.528Z,31.05
2023-03-07T14:14:30.740Z,26.50
2023-03-07T14:15:47.577Z,26.27
2023-03-07T14:17:04.374Z,20.35
2023-03-07T14:18:23.846Z,20.90